Time;durP1;ratioP1;P1;durP2;ratioP2;P2;SDS_P1;SDS_P2;PMS_P1;PMS_P2;Temp;Humidity;BMP_temperature;BMP_pressure;BME280_temperature;BME280_humidity;BME280_pressure;Samples;Min_cycle;Max_cycle;Signal;HPM_P1;HPM_P2
2023/06/22 00:00:30;;;;;;;11.75;6.65;;;24.00;59.50;;;;;;4966431;28;114246;-80
2023/06/22 00:03:00;;;;;;;7.28;5.18;;;23.90;59.70;;;;;;4966253;28;114347;-79
2023/06/22 00:05:28;;;;;;;13.25;8.23;;;23.90;59.20;;;;;;4965802;28;115385;-79
2023/06/22 00:07:55;;;;;;;13.65;7.20;;;24.00;60.00;;;;;;4965849;28;114975;-80
2023/06/22 00:10:22;;;;;;;15.77;9.18;;;23.80;60.00;;;;;;4979057;28;114546;-81
2023/06/22 00:12:49;;;;;;;7.68;6.50;;;23.70;60.60;;;;;;4966364;28;114212;-79
2023/06/22 00:15:17;;;;;;;12.50;7.82;;;23.60;60.60;;;;;;4965459;28;114891;-78
2023/06/22 00:17:45;;;;;;;9.75;6.63;;;23.60;61.00;;;;;;4966253;28;115230;-79
2023/06/22 00:20:13;;;;;;;11.07;7.50;;;23.50;60.80;;;;;;4981964;28;114607;-79
2023/06/22 00:22:40;;;;;;;11.02;6.88;;;23.40;61.30;;;;;;4967020;28;117009;-79
2023/06/22 00:25:07;;;;;;;13.45;7.43;;;23.40;61.00;;;;;;4964931;28;116362;-79
2023/06/22 00:27:35;;;;;;;13.15;7.18;;;23.50;61.40;;;;;;4985403;28;114787;-79
2023/06/22 00:30:05;;;;;;;11.77;7.50;;;23.50;61.10;;;;;;4985139;28;114981;-79
2023/06/22 00:32:32;;;;;;;9.32;5.80;;;23.60;61.30;;;;;;4984863;28;114237;-79
2023/06/22 00:35:00;;;;;;;12.13;7.70;;;23.60;60.70;;;;;;4986444;28;116182;-78
2023/06/22 00:37:29;;;;;;;15.52;7.95;;;23.70;60.90;;;;;;4985424;28;114370;-79
2023/06/22 00:39:58;;;;;;;13.00;6.95;;;23.70;61.00;;;;;;4981630;28;114279;-79
2023/06/22 00:42:26;;;;;;;9.70;6.05;;;23.70;60.40;;;;;;4966630;28;114296;-79
2023/06/22 00:44:54;;;;;;;13.13;6.57;;;23.80;59.90;;;;;;4965282;28;114960;-79
2023/06/22 00:47:23;;;;;;;10.93;7.60;;;23.80;60.00;;;;;;4963905;28;119048;-79
2023/06/22 00:49:51;;;;;;;7.63;5.43;;;23.70;60.30;;;;;;4983137;28;114694;-79
2023/06/22 00:52:20;;;;;;;10.10;5.95;;;23.60;60.10;;;;;;4968125;28;114258;-79
2023/06/22 00:54:50;;;;;;;8.50;4.88;;;23.60;60.10;;;;;;4983873;28;115060;-79
2023/06/22 00:57:17;;;;;;;6.85;5.15;;;23.50;59.80;;;;;;4999215;28;119082;-79
2023/06/22 00:59:44;;;;;;;10.15;5.57;;;23.30;60.10;;;;;;4964886;28;114287;-81
2023/06/22 01:02:12;;;;;;;8.73;5.63;;;23.30;60.50;;;;;;4964893;28;114246;-80
2023/06/22 01:04:39;;;;;;;9.23;5.60;;;23.30;60.60;;;;;;4965172;28;115190;-80
2023/06/22 01:07:31;;;;;;;12.23;7.20;;;23.40;60.50;;;;;;4964049;28;114709;-80
2023/06/22 01:10:02;;;;;;;11.98;8.65;;;23.50;60.30;;;;;;4964321;28;114422;-80
2023/06/22 01:12:34;;;;;;;8.82;6.85;;;23.50;60.30;;;;;;4964198;28;114198;-80
2023/06/22 01:15:08;;;;;;;12.45;9.32;;;23.50;60.20;;;;;;4978768;28;116402;-80
2023/06/22 01:17:37;;;;;;;11.38;6.90;;;23.50;60.20;;;;;;4963501;28;114637;-80
2023/06/22 01:20:05;;;;;;;16.88;9.68;;;23.40;60.20;;;;;;4961161;28;114230;-80
2023/06/22 01:22:46;;;;;;;12.80;7.45;;;23.40;60.40;;;;;;4980174;28;114973;-80
2023/06/22 01:25:20;;;;;;;10.30;7.88;;;23.50;60.30;;;;;;4978877;28;114912;-80
2023/06/22 01:27:56;;;;;;;13.20;8.38;;;23.60;60.10;;;;;;4986470;28;116346;-80
2023/06/22 01:30:26;;;;;;;11.82;6.35;;;23.70;60.00;;;;;;4980198;28;118516;-80
2023/06/22 01:32:57;;;;;;;10.27;7.43;;;23.70;59.60;;;;;;4960597;28;114451;-80
2023/06/22 01:35:25;;;;;;;14.20;9.88;;;23.80;59.60;;;;;;4979344;28;115123;-81
2023/06/22 01:37:52;;;;;;;15.25;9.95;;;23.80;59.40;;;;;;4979370;28;114859;-78
2023/06/22 01:40:21;;;;;;;11.65;8.15;;;23.80;59.40;;;;;;4979452;28;114424;-78
2023/06/22 01:42:50;;;;;;;14.25;8.02;;;23.80;59.30;;;;;;4963957;28;114258;-78
2023/06/22 01:45:17;;;;;;;13.65;8.85;;;23.80;59.20;;;;;;4978639;28;118139;-81
2023/06/22 01:47:44;;;;;;;11.77;7.80;;;23.90;59.10;;;;;;4978571;28;116265;-80
2023/06/22 01:50:11;;;;;;;10.90;6.55;;;23.90;59.00;;;;;;4978600;28;114578;-80
2023/06/22 01:52:38;;;;;;;10.73;6.40;;;23.90;58.80;;;;;;4963647;28;114482;-79
2023/06/22 01:55:07;;;;;;;12.23;7.22;;;24.00;58.70;;;;;;4964028;28;115509;-79
2023/06/22 01:57:35;;;;;;;8.68;6.03;;;23.90;58.90;;;;;;4978849;28;115231;-79
2023/06/22 02:00:13;;;;;;;9.32;6.25;;;23.90;58.60;;;;;;4947312;28;114530;-79
2023/06/22 02:02:49;;;;;;;10.05;5.57;;;24.00;58.60;;;;;;4980414;28;114618;-79
2023/06/22 02:05:17;;;;;;;9.93;6.03;;;23.90;58.50;;;;;;4978218;28;117192;-79
2023/06/22 02:08:07;;;;;;;10.10;6.93;;;23.90;58.60;;;;;;4962999;28;115137;-79
2023/06/22 02:10:35;;;;;;;9.27;5.75;;;23.90;58.40;;;;;;4980091;28;114365;-79
2023/06/22 02:13:04;;;;;;;10.50;6.32;;;23.80;58.70;;;;;;4955619;28;114235;-79
2023/06/22 02:15:32;;;;;;;7.93;5.63;;;23.80;58.70;;;;;;4981904;28;116685;-79
2023/06/22 02:18:00;;;;;;;9.50;5.75;;;23.80;58.60;;;;;;4965073;28;118227;-79
2023/06/22 02:20:28;;;;;;;8.25;4.85;;;23.80;58.60;;;;;;4980058;28;114367;-79
2023/06/22 02:22:56;;;;;;;9.90;5.15;;;23.80;58.40;;;;;;4978282;28;114169;-80
2023/06/22 02:25:23;;;;;;;6.82;4.65;;;23.80;58.60;;;;;;4962502;28;117042;-79
2023/06/22 02:27:51;;;;;;;8.38;5.40;;;23.80;58.60;;;;;;4979428;28;116018;-79
2023/06/22 02:30:18;;;;;;;8.23;5.05;;;23.80;58.60;;;;;;4965131;28;114187;-79
2023/06/22 02:32:45;;;;;;;8.80;5.85;;;23.80;58.40;;;;;;4967674;28;114115;-79
2023/06/22 02:35:15;;;;;;;9.52;5.85;;;23.80;58.50;;;;;;4977185;28;117849;-79
2023/06/22 02:37:46;;;;;;;10.88;6.22;;;23.80;58.40;;;;;;4962656;28;114363;-79
2023/06/22 02:40:13;;;;;;;7.57;4.93;;;23.80;58.30;;;;;;4963765;28;114581;-80
2023/06/22 02:42:40;;;;;;;7.45;4.82;;;23.80;58.50;;;;;;4979671;28;114422;-79
2023/06/22 02:45:08;;;;;;;9.07;5.22;;;23.70;58.60;;;;;;4962172;28;114643;-80
2023/06/22 02:47:35;;;;;;;6.47;5.00;;;23.60;58.60;;;;;;4981784;28;118839;-80
2023/06/22 02:50:04;;;;;;;8.80;4.97;;;23.60;59.00;;;;;;4999260;28;114741;-80
2023/06/22 02:52:33;;;;;;;9.13;5.15;;;23.60;59.20;;;;;;4982957;28;114270;-79
2023/06/22 02:55:04;;;;;;;9.38;4.85;;;23.60;59.10;;;;;;4981468;28;115011;-79
2023/06/22 02:57:33;;;;;;;9.23;5.03;;;23.60;58.90;;;;;;4984816;28;114811;-79
2023/06/22 03:00:19;;;;;;;7.82;4.50;;;23.70;58.90;;;;;;4969661;28;114230;-79
2023/06/22 03:02:47;;;;;;;;;;;23.70;58.80;;;;;;4954181;28;114546;-79
2023/06/22 03:05:17;;;;;;;8.38;5.10;;;23.70;58.50;;;;;;4985309;28;115551;-79
2023/06/22 03:07:45;;;;;;;8.20;4.63;;;23.60;58.80;;;;;;4976137;28;115460;-79
2023/06/22 03:10:13;;;;;;;8.60;4.78;;;23.70;58.60;;;;;;4982788;28;114219;-79
2023/06/22 03:12:41;;;;;;;9.30;4.55;;;23.80;58.50;;;;;;4950453;28;114311;-79
2023/06/22 03:15:10;;;;;;;9.75;5.32;;;23.80;58.30;;;;;;4977614;28;114881;-79
2023/06/22 03:17:41;;;;;;;9.20;5.32;;;23.80;58.20;;;;;;4964889;28;114658;-80
2023/06/22 03:20:10;;;;;;;8.77;5.15;;;23.80;58.20;;;;;;4965549;28;114587;-79
2023/06/22 03:22:38;;;;;;;7.43;5.15;;;23.80;58.20;;;;;;4966419;28;114186;-79
2023/06/22 03:25:09;;;;;;;9.13;5.28;;;23.80;58.40;;;;;;4965317;28;115443;-79
2023/06/22 03:27:39;;;;;;;8.80;4.80;;;23.80;58.30;;;;;;4964121;28;115752;-80
2023/06/22 03:30:08;;;;;;;8.18;5.25;;;23.90;58.20;;;;;;4967517;28;114415;-79
2023/06/22 03:32:36;;;;;;;9.07;5.03;;;23.90;58.20;;;;;;4978393;28;114187;-80
2023/06/22 03:35:06;;;;;;;8.02;4.70;;;24.00;57.90;;;;;;4964782;28;115864;-79
2023/06/22 03:37:36;;;;;;;8.50;4.75;;;24.10;57.60;;;;;;4965067;28;114621;-79
2023/06/22 03:40:06;;;;;;;5.78;4.45;;;24.20;57.50;;;;;;4972337;28;116645;-79
2023/06/22 03:42:36;;;;;;;7.65;4.93;;;24.20;57.40;;;;;;4985368;28;114225;-80
2023/06/22 03:45:07;;;;;;;6.82;4.55;;;24.20;57.30;;;;;;5000325;28;115001;-80
2023/06/22 03:47:34;;;;;;;5.30;4.28;;;24.20;57.30;;;;;;4985976;28;114615;-80
2023/06/22 03:50:03;;;;;;;6.15;4.78;;;24.20;57.30;;;;;;4986217;28;116341;-79
2023/06/22 03:52:32;;;;;;;8.73;5.70;;;24.20;57.30;;;;;;4986012;28;114324;-80
2023/06/22 03:54:59;;;;;;;8.23;5.10;;;24.20;57.20;;;;;;4968962;28;115116;-80
2023/06/22 03:57:31;;;;;;;9.18;5.18;;;24.30;57.00;;;;;;4992651;28;114785;-79
2023/06/22 04:00:01;;;;;;;14.13;8.07;;;24.30;56.90;;;;;;4967495;28;114553;-79
2023/06/22 04:02:38;;;;;;;10.07;5.47;;;24.30;57.20;;;;;;4982202;28;114096;-79
2023/06/22 04:05:06;;;;;;;11.23;6.55;;;24.50;56.90;;;;;;4965139;28;117378;-79
2023/06/22 04:07:37;;;;;;;9.55;7.07;;;24.70;56.50;;;;;;4972194;28;115375;-79
2023/06/22 04:10:04;;;;;;;10.43;6.22;;;24.90;56.20;;;;;;4966646;28;114835;-79
2023/06/22 04:12:32;;;;;;;9.20;5.88;;;25.00;55.50;;;;;;4980475;28;114270;-79
2023/06/22 04:14:59;;;;;;;12.07;6.57;;;25.30;55.10;;;;;;4990314;28;115093;-79
2023/06/22 04:17:27;;;;;;;13.75;6.63;;;25.30;54.60;;;;;;4985292;28;115947;-79
2023/06/22 04:19:54;;;;;;;9.95;6.05;;;25.50;54.40;;;;;;4987494;28;114329;-79
2023/06/22 04:22:21;;;;;;;12.90;6.18;;;25.60;54.00;;;;;;4987320;28;114387;-79
2023/06/22 04:24:52;;;;;;;11.13;6.85;;;25.70;54.10;;;;;;4986159;28;114951;-80
2023/06/22 04:27:22;;;;;;;11.13;6.60;;;25.70;53.90;;;;;;4975120;28;114641;-80
2023/06/22 04:29:51;;;;;;;17.95;8.02;;;25.70;54.00;;;;;;4968287;28;114399;-80
2023/06/22 04:32:18;;;;;;;11.45;7.57;;;25.60;54.10;;;;;;4968106;28;114202;-80
2023/06/22 04:34:45;;;;;;;11.95;6.95;;;25.60;54.20;;;;;;4964918;28;115336;-80
2023/06/22 04:37:15;;;;;;;11.65;6.93;;;25.60;54.10;;;;;;4966373;28;115379;-80
2023/06/22 04:39:43;;;;;;;18.40;7.00;;;25.50;54.20;;;;;;4967304;28;114263;-80
2023/06/22 04:42:12;;;;;;;11.77;6.55;;;25.60;54.20;;;;;;4966051;28;114235;-80
2023/06/22 04:44:39;;;;;;;13.32;8.13;;;25.60;54.00;;;;;;4965395;28;114973;-79
2023/06/22 04:47:08;;;;;;;17.75;8.18;;;25.70;54.10;;;;;;4966484;28;115009;-80
2023/06/22 04:49:37;;;;;;;14.00;7.57;;;25.70;53.80;;;;;;4961943;28;114342;-79
2023/06/22 04:52:05;;;;;;;12.25;6.75;;;25.60;54.00;;;;;;4982514;28;117396;-79
2023/06/22 04:54:34;;;;;;;11.90;6.93;;;25.70;53.90;;;;;;4965100;28;119453;-79
2023/06/22 04:57:02;;;;;;;10.65;6.38;;;25.80;53.70;;;;;;4964058;28;115215;-80
2023/06/22 04:59:30;;;;;;;13.50;7.90;;;25.80;53.70;;;;;;4982032;28;114285;-81
2023/06/22 05:01:59;;;;;;;11.43;7.15;;;25.80;53.70;;;;;;4965783;28;116229;-80
2023/06/22 05:04:27;;;;;;;12.77;6.72;;;25.80;53.80;;;;;;4969163;28;116853;-80
2023/06/22 05:06:55;;;;;;;14.50;6.47;;;25.90;53.90;;;;;;4980628;28;114791;-78
2023/06/22 05:09:23;;;;;;;15.18;7.05;;;25.90;53.80;;;;;;4981806;28;114249;-78
2023/06/22 05:11:50;;;;;;;13.43;7.25;;;26.00;53.40;;;;;;4979782;28;114541;-80
2023/06/22 05:14:18;;;;;;;12.27;7.32;;;26.10;53.50;;;;;;4978596;28;115646;-79
2023/06/22 05:16:45;;;;;;;18.05;7.68;;;26.00;53.40;;;;;;4980474;28;116399;-80
2023/06/22 05:19:12;;;;;;;11.27;6.22;;;25.90;53.20;;;;;;4981973;28;114563;-81
2023/06/22 05:21:40;;;;;;;13.32;7.38;;;25.90;53.30;;;;;;4948730;28;116997;-80
2023/06/22 05:24:08;;;;;;;15.55;7.10;;;25.90;53.60;;;;;;4979070;28;116145;-81
2023/06/22 05:26:36;;;;;;;14.77;7.95;;;26.00;53.80;;;;;;4965095;28;115804;-79
2023/06/22 05:29:03;;;;;;;13.40;7.43;;;26.20;53.50;;;;;;4967068;28;114483;-79
2023/06/22 05:31:30;;;;;;;12.32;7.15;;;26.20;53.30;;;;;;4966296;28;115886;-79
2023/06/22 05:33:59;;;;;;;16.27;7.95;;;26.30;52.90;;;;;;4964284;28;117254;-79
2023/06/22 05:36:27;;;;;;;14.98;7.10;;;26.30;53.10;;;;;;4965983;28;117690;-80
2023/06/22 05:38:57;;;;;;;13.07;6.75;;;26.40;52.70;;;;;;4965745;28;114297;-80
2023/06/22 05:41:25;;;;;;;13.43;6.50;;;26.50;52.60;;;;;;4965683;28;114208;-82
2023/06/22 05:43:52;;;;;;;13.95;8.18;;;26.60;52.60;;;;;;4964315;28;115094;-81
2023/06/22 05:46:20;;;;;;;13.32;7.03;;;26.60;52.50;;;;;;4980105;28;114811;-79
2023/06/22 05:48:47;;;;;;;15.30;7.20;;;26.60;52.20;;;;;;4977935;28;114610;-80
2023/06/22 05:51:14;;;;;;;10.43;6.32;;;26.70;52.10;;;;;;4970710;28;114399;-81
2023/06/22 05:53:41;;;;;;;12.25;6.35;;;26.80;51.40;;;;;;4966193;28;115641;-80
2023/06/22 05:56:08;;;;;;;13.02;7.07;;;26.90;51.40;;;;;;4961663;28;115181;-79
2023/06/22 05:58:37;;;;;;;14.05;6.93;;;27.10;51.90;;;;;;4979365;28;115244;-81
2023/06/22 06:01:04;;;;;;;11.75;7.75;;;27.30;51.40;;;;;;4979567;28;114641;-81
2023/06/22 06:03:41;;;;;;;10.70;6.53;;;27.30;51.30;;;;;;4961612;28;118580;-79
2023/06/22 06:10:39;;;;;;;11.50;7.70;;;27.50;51.40;;;;;;4962857;28;114329;-79
2023/06/22 06:13:06;;;;;;;14.35;8.80;;;27.60;51.10;;;;;;4961035;28;114361;-77
2023/06/22 06:15:35;;;;;;;14.63;9.50;;;27.80;50.50;;;;;;4961171;28;116299;-78
2023/06/22 06:18:04;;;;;;;13.32;9.57;;;27.80;50.30;;;;;;4977528;28;114842;-78
2023/06/22 06:20:32;;;;;;;12.88;9.77;;;27.90;50.40;;;;;;4978899;28;114485;-79
2023/06/22 06:23:02;;;;;;;15.80;10.05;;;27.90;50.60;;;;;;4962221;28;114715;-78
2023/06/22 06:25:30;;;;;;;17.30;11.13;;;28.00;50.00;;;;;;4966813;28;116175;-79
2023/06/22 06:27:57;;;;;;;15.40;12.18;;;28.10;49.80;;;;;;4966686;28;114624;-79
2023/06/22 06:30:24;;;;;;;19.67;11.25;;;28.20;50.30;;;;;;4968402;28;114337;-78
2023/06/22 06:32:51;;;;;;;15.50;10.77;;;28.20;49.60;;;;;;4968537;28;114265;-79
2023/06/22 06:35:18;;;;;;;14.65;10.80;;;28.30;49.90;;;;;;4972953;28;114851;-78
2023/06/22 06:37:52;;;;;;;16.02;12.15;;;28.40;49.90;;;;;;4982927;28;116233;-78
2023/06/22 06:40:19;;;;;;;16.40;12.43;;;28.40;49.10;;;;;;5001765;28;114503;-79
2023/06/22 06:42:47;;;;;;;13.73;11.93;;;28.30;49.50;;;;;;4986319;28;115621;-79
2023/06/22 06:45:22;;;;;;;15.43;11.65;;;28.30;49.60;;;;;;4985239;28;114963;-79
2023/06/22 06:47:52;;;;;;;16.83;12.35;;;28.30;49.70;;;;;;5002796;28;115109;-79
2023/06/22 06:50:22;;;;;;;18.63;14.15;;;28.30;49.70;;;;;;4988093;28;114117;-78
2023/06/22 06:52:50;;;;;;;16.55;13.43;;;28.40;49.30;;;;;;5003310;28;114429;-79
2023/06/22 06:55:19;;;;;;;14.07;12.60;;;28.40;49.60;;;;;;5001620;28;114952;-79
2023/06/22 06:57:48;;;;;;;17.83;13.07;;;28.50;49.70;;;;;;5002325;28;115870;-78
2023/06/22 07:00:16;;;;;;;16.80;13.80;;;28.50;49.90;;;;;;4987095;28;114404;-78
2023/06/22 07:02:43;;;;;;;17.45;13.48;;;28.40;50.00;;;;;;4988074;28;114299;-79
2023/06/22 07:05:11;;;;;;;16.33;13.27;;;28.40;50.10;;;;;;4986036;28;114944;-78
2023/06/22 07:07:38;;;;;;;16.70;13.10;;;28.40;49.80;;;;;;5001425;28;116703;-78
2023/06/22 07:10:06;;;;;;;15.57;12.75;;;28.40;50.10;;;;;;4987898;28;114243;-79
2023/06/22 07:12:33;;;;;;;16.10;14.40;;;28.50;50.00;;;;;;4987886;28;114462;-79
2023/06/22 07:15:07;;;;;;;18.27;13.60;;;28.60;49.80;;;;;;4987052;28;114905;-78
2023/06/22 07:17:35;;;;;;;16.05;13.18;;;28.70;49.60;;;;;;4986463;28;114632;-79
2023/06/22 07:20:12;;;;;;;23.98;15.55;;;28.80;49.60;;;;;;5002641;28;114578;-78
2023/06/22 07:22:44;;;;;;;17.33;14.27;;;28.80;49.50;;;;;;4986646;28;114501;-79
2023/06/22 07:25:14;;;;;;;16.25;14.55;;;28.90;49.50;;;;;;4986119;28;114853;-79
2023/06/22 07:27:47;;;;;;;18.00;13.63;;;28.90;49.30;;;;;;4986303;28;115178;-79
2023/06/22 07:30:14;;;;;;;19.90;16.05;;;28.90;49.30;;;;;;4978613;28;116634;-78
2023/06/22 07:32:41;;;;;;;16.88;14.90;;;28.90;49.20;;;;;;4966717;28;114369;-79
2023/06/22 07:35:09;;;;;;;16.70;14.85;;;28.80;49.20;;;;;;4966150;28;114872;-78
2023/06/22 07:37:36;;;;;;;18.83;16.73;;;28.80;49.80;;;;;;4965223;28;115236;-80
2023/06/22 07:40:06;;;;;;;18.10;15.65;;;28.80;49.60;;;;;;4967284;28;114511;-79
2023/06/22 07:42:33;;;;;;;17.58;14.70;;;28.70;49.60;;;;;;4989503;28;117678;-80
2023/06/22 07:45:02;;;;;;;20.73;17.58;;;28.70;49.50;;;;;;4967161;28;114868;-79
2023/06/22 07:47:33;;;;;;;17.88;16.08;;;28.50;49.50;;;;;;4982114;28;115096;-79
2023/06/22 07:50:01;;;;;;;20.85;15.73;;;28.30;49.30;;;;;;4966640;28;114315;-78
2023/06/22 07:52:28;;;;;;;17.45;15.57;;;28.30;50.20;;;;;;4967618;28;114552;-79
2023/06/22 07:54:55;;;;;;;17.83;16.05;;;28.30;50.80;;;;;;4980621;28;117592;-79
2023/06/22 07:57:31;;;;;;;18.88;16.13;;;28.30;50.20;;;;;;5001094;28;115212;-78
2023/06/22 08:00:06;;;;;;;18.17;15.63;;;28.40;49.70;;;;;;4985308;28;114682;-79
2023/06/22 08:02:39;;;;;;;17.48;15.70;;;28.40;49.50;;;;;;5001218;28;114398;-79
2023/06/22 08:05:08;;;;;;;17.75;15.57;;;28.40;50.10;;;;;;4985564;28;114884;-79
2023/06/22 08:07:48;;;;;;;17.63;15.68;;;28.50;49.80;;;;;;4979917;28;115363;-78
2023/06/22 08:10:15;;;;;;;17.40;14.25;;;28.50;50.60;;;;;;4966294;28;115332;-79
2023/06/22 08:12:42;;;;;;;20.10;15.27;;;28.60;50.40;;;;;;4967970;28;116071;-78
2023/06/22 08:15:10;;;;;;;20.55;16.55;;;28.80;50.00;;;;;;4965082;28;116430;-79
2023/06/22 08:17:38;;;;;;;18.80;16.90;;;28.80;49.60;;;;;;4964611;28;114920;-79
2023/06/22 08:20:09;;;;;;;18.75;16.73;;;28.90;50.00;;;;;;4965910;28;114236;-78
2023/06/22 08:22:36;;;;;;;19.83;17.13;;;28.80;50.90;;;;;;4965465;28;114252;-78
2023/06/22 08:25:04;;;;;;;18.33;16.42;;;28.70;50.40;;;;;;4965684;28;116769;-78
2023/06/22 08:27:32;;;;;;;19.77;16.90;;;28.60;50.50;;;;;;4991355;28;114662;-79
2023/06/22 08:29:59;;;;;;;18.88;16.10;;;28.60;50.70;;;;;;4970504;28;114157;-79
2023/06/22 08:32:28;;;;;;;19.63;17.58;;;28.60;50.70;;;;;;4966901;28;114172;-79
2023/06/22 08:34:56;;;;;;;20.35;17.58;;;28.50;50.10;;;;;;4984421;28;115454;-78
2023/06/22 08:37:24;;;;;;;18.55;15.07;;;28.40;50.80;;;;;;4985806;28;115219;-79
2023/06/22 08:39:51;;;;;;;18.88;16.80;;;28.40;51.00;;;;;;4985149;28;114201;-79
2023/06/22 08:42:19;;;;;;;19.65;17.45;;;28.30;51.20;;;;;;4987007;28;114189;-79
2023/06/22 08:44:46;;;;;;;18.25;16.20;;;28.20;51.10;;;;;;4985365;28;114900;-80
2023/06/22 08:47:14;;;;;;;18.73;16.58;;;28.10;51.00;;;;;;4967986;28;115278;-79
2023/06/22 08:49:42;;;;;;;18.90;17.02;;;28.10;51.90;;;;;;4966767;28;114166;-79
2023/06/22 08:52:11;;;;;;;18.38;16.55;;;28.10;51.40;;;;;;4967045;28;114332;-78
2023/06/22 08:54:38;;;;;;;17.42;15.57;;;28.30;50.30;;;;;;4980859;28;117034;-79
2023/06/22 08:57:06;;;;;;;18.58;16.67;;;28.30;49.80;;;;;;4964383;28;115001;-79
2023/06/22 08:59:33;;;;;;;16.42;14.88;;;28.20;49.60;;;;;;4966672;28;114465;-78
2023/06/22 09:02:00;;;;;;;17.13;15.02;;;28.10;50.00;;;;;;4966900;28;114132;-78
2023/06/22 09:04:28;;;;;;;17.27;15.57;;;28.10;50.00;;;;;;4965556;28;115139;-79
2023/06/22 09:06:55;;;;;;;15.45;13.95;;;28.00;50.00;;;;;;4980674;28;114647;-78
2023/06/22 09:09:22;;;;;;;16.77;15.02;;;28.00;50.10;;;;;;4950248;28;114614;-79
2023/06/22 09:11:49;;;;;;;18.23;16.40;;;28.10;49.60;;;;;;4968355;28;114344;-78
2023/06/22 09:14:17;;;;;;;18.92;16.10;;;28.10;49.70;;;;;;4983400;28;115151;-79
2023/06/22 09:16:44;;;;;;;14.88;13.32;;;28.10;49.80;;;;;;4984546;28;114588;-79
2023/06/22 09:19:12;;;;;;;14.98;12.88;;;28.10;49.20;;;;;;4984984;28;114458;-79
2023/06/22 09:21:39;;;;;;;15.48;14.05;;;28.10;48.80;;;;;;4985351;28;114160;-78
2023/06/22 09:24:06;;;;;;;16.00;14.45;;;28.20;48.70;;;;;;4999949;28;115048;-78
2023/06/22 09:26:33;;;;;;;15.80;14.30;;;28.30;48.30;;;;;;4983506;28;117413;-78
2023/06/22 09:29:00;;;;;;;15.52;13.90;;;28.30;48.50;;;;;;4985400;28;118165;-79
2023/06/22 09:31:28;;;;;;;15.13;13.63;;;28.30;48.20;;;;;;4984169;28;114580;-78
2023/06/22 09:33:56;;;;;;;16.60;14.90;;;28.30;48.10;;;;;;4962738;28;116248;-78
2023/06/22 09:36:24;;;;;;;17.17;15.38;;;28.40;47.60;;;;;;4970833;28;117077;-79
2023/06/22 09:38:55;;;;;;;17.50;15.52;;;28.50;47.80;;;;;;4984670;28;114228;-79
2023/06/22 09:41:24;;;;;;;17.75;15.85;;;28.60;47.60;;;;;;4985150;28;116403;-78
2023/06/22 09:43:52;;;;;;;17.73;16.02;;;28.60;48.10;;;;;;4984275;28;114617;-77
2023/06/22 09:46:25;;;;;;;17.63;15.82;;;28.40;48.40;;;;;;4983795;28;115311;-79
2023/06/22 09:48:52;;;;;;;17.80;15.90;;;28.30;48.40;;;;;;5000073;28;114295;-78
2023/06/22 09:51:21;;;;;;;17.25;15.63;;;28.30;48.60;;;;;;5000430;28;114540;-79
2023/06/22 09:53:49;;;;;;;19.48;17.38;;;28.30;48.20;;;;;;4984183;28;115824;-78
2023/06/22 09:56:16;;;;;;;20.70;18.58;;;28.20;48.60;;;;;;4965272;28;115359;-79
2023/06/22 09:58:46;;;;;;;18.90;16.80;;;28.30;48.50;;;;;;4963578;28;114316;-78
2023/06/22 10:01:16;;;;;;;19.00;17.30;;;28.30;48.40;;;;;;4970072;28;114307;-79
2023/06/22 10:03:43;;;;;;;18.95;16.95;;;28.30;48.50;;;;;;4984062;28;114981;-78
2023/06/22 10:06:11;;;;;;;18.90;16.83;;;28.30;49.00;;;;;;4983031;28;114632;-77
2023/06/22 10:08:39;;;;;;;19.77;17.48;;;28.30;49.10;;;;;;4983719;28;114495;-79
2023/06/22 10:11:06;;;;;;;19.38;17.38;;;28.30;49.00;;;;;;4984781;28;115917;-79
2023/06/22 10:13:33;;;;;;;21.10;18.90;;;28.30;49.50;;;;;;4984055;28;114979;-78
2023/06/22 10:16:00;;;;;;;20.25;18.17;;;28.40;49.20;;;;;;4984195;28;116101;-79
2023/06/22 10:18:27;;;;;;;20.80;18.60;;;28.50;49.00;;;;;;4986356;28;114216;-79
2023/06/22 10:20:54;;;;;;;19.58;17.65;;;28.50;49.10;;;;;;4967138;28;114276;-79
2023/06/22 10:23:21;;;;;;;19.33;17.42;;;28.70;48.60;;;;;;4963988;28;114947;-78
2023/06/22 10:25:49;;;;;;;19.23;17.33;;;28.70;48.50;;;;;;4980896;28;114870;-78
2023/06/22 10:28:16;;;;;;;19.00;17.00;;;28.50;48.70;;;;;;4951698;28;115421;-78
2023/06/22 10:30:43;;;;;;;19.77;17.67;;;28.20;48.70;;;;;;4965378;28;114232;-79
2023/06/22 10:33:11;;;;;;;19.98;18.08;;;28.30;49.20;;;;;;4964155;28;116302;-79
2023/06/22 10:35:38;;;;;;;20.58;18.48;;;28.30;48.70;;;;;;4979645;28;115648;-79
2023/06/22 10:38:08;;;;;;;19.85;17.80;;;28.30;48.70;;;;;;4947522;28;114550;-80
2023/06/22 10:40:39;;;;;;;20.27;18.30;;;28.30;49.00;;;;;;4994665;28;114329;-79
2023/06/22 10:43:06;;;;;;;21.80;19.75;;;28.50;49.00;;;;;;4976671;28;116296;-79
2023/06/22 10:45:33;;;;;;;20.75;18.63;;;28.60;48.60;;;;;;4964050;28;115248;-79
2023/06/22 10:48:00;;;;;;;19.98;17.98;;;28.70;48.60;;;;;;4963019;28;114580;-78
2023/06/22 10:50:28;;;;;;;19.52;17.52;;;28.80;48.10;;;;;;4965053;28;114627;-79
2023/06/22 10:52:55;;;;;;;19.23;17.38;;;28.80;47.90;;;;;;4963837;28;115182;-79
2023/06/22 10:55:26;;;;;;;19.83;17.92;;;28.80;48.30;;;;;;4961410;28;114679;-79
2023/06/22 10:58:05;;;;;;;21.52;18.85;;;28.80;47.70;;;;;;4964871;28;114520;-79
2023/06/22 11:00:36;;;;;;;21.13;18.70;;;28.60;48.20;;;;;;4963704;28;114563;-79
2023/06/22 11:03:03;;;;;;;20.10;18.15;;;28.40;48.00;;;;;;4964543;28;114948;-79
2023/06/22 11:05:31;;;;;;;19.55;17.60;;;28.40;48.40;;;;;;4965173;28;114643;-79
2023/06/22 11:07:59;;;;;;;18.63;16.83;;;28.50;48.30;;;;;;4964545;28;114216;-79
2023/06/22 11:10:27;;;;;;;18.70;16.90;;;28.60;48.20;;;;;;4964587;28;114388;-78
2023/06/22 11:12:57;;;;;;;19.10;17.30;;;28.80;47.80;;;;;;4963525;28;115991;-79
2023/06/22 11:15:25;;;;;;;18.50;16.60;;;28.80;47.50;;;;;;4963107;28;117396;-79
2023/06/22 11:17:52;;;;;;;19.25;17.35;;;28.70;47.90;;;;;;4967118;28;114453;-79
2023/06/22 11:20:20;;;;;;;20.52;18.50;;;28.80;48.20;;;;;;4969463;28;115869;-79
2023/06/22 11:22:47;;;;;;;20.63;18.67;;;28.90;47.90;;;;;;4968330;28;115088;-77
2023/06/22 11:25:14;;;;;;;20.80;18.90;;;28.90;48.20;;;;;;4965758;28;117608;-77
2023/06/22 11:27:41;;;;;;;22.20;19.95;;;28.90;48.30;;;;;;4968627;28;114522;-77
2023/06/22 11:30:08;;;;;;;20.52;18.50;;;28.90;47.90;;;;;;4967609;28;114287;-79
2023/06/22 11:32:36;;;;;;;19.73;17.77;;;28.90;47.50;;;;;;4966840;28;114911;-80
2023/06/22 11:35:03;;;;;;;19.50;17.50;;;28.80;48.30;;;;;;4965487;28;114758;-79
2023/06/22 11:37:31;;;;;;;20.73;18.65;;;28.90;47.80;;;;;;4973231;28;114126;-79
2023/06/22 11:39:59;;;;;;;20.58;18.35;;;28.80;48.40;;;;;;4964983;28;114273;-77
2023/06/22 11:42:34;;;;;;;20.98;18.50;;;28.90;48.10;;;;;;4965837;28;115761;-78
2023/06/22 11:45:02;;;;;;;18.90;16.98;;;28.90;48.30;;;;;;4966780;28;114782;-79
2023/06/22 11:47:29;;;;;;;19.95;18.15;;;28.90;48.30;;;;;;4967528;28;114430;-78
2023/06/22 11:49:56;;;;;;;20.73;18.75;;;28.90;47.60;;;;;;4967424;28;114569;-78
2023/06/22 11:52:24;;;;;;;20.80;18.75;;;28.90;47.70;;;;;;4967348;28;115015;-79
2023/06/22 11:54:51;;;;;;;21.33;18.88;;;28.90;48.10;;;;;;4965796;28;115178;-78
2023/06/22 11:57:18;;;;;;;21.48;19.30;;;28.80;48.40;;;;;;4982074;28;114352;-78
2023/06/22 11:59:45;;;;;;;19.50;17.60;;;28.80;48.60;;;;;;4978328;28;114381;-79
2023/06/22 12:02:12;;;;;;;19.33;17.42;;;28.70;48.20;;;;;;4986129;28;114995;-79
2023/06/22 12:04:41;;;;;;;19.88;17.92;;;28.70;48.10;;;;;;4985965;28;114656;-78
2023/06/22 12:07:11;;;;;;;19.80;17.90;;;28.70;48.00;;;;;;4950750;28;114430;-80
2023/06/22 12:09:38;;;;;;;19.67;17.67;;;28.80;47.90;;;;;;4966732;28;114413;-79
2023/06/22 12:12:05;;;;;;;19.13;17.15;;;28.80;48.00;;;;;;4964691;28;118452;-78
2023/06/22 12:14:32;;;;;;;19.05;17.15;;;28.80;47.90;;;;;;4981475;28;114960;-78
2023/06/22 12:16:59;;;;;;;18.67;16.77;;;28.80;47.60;;;;;;4966395;28;114286;-78
2023/06/22 12:19:30;;;;;;;18.77;17.05;;;28.80;47.50;;;;;;4966939;28;114639;-78
2023/06/22 12:21:58;;;;;;;19.58;17.23;;;28.80;47.20;;;;;;4964864;28;117802;-77
2023/06/22 12:24:26;;;;;;;17.75;15.98;;;28.80;46.90;;;;;;4965915;28;116657;-78
2023/06/22 12:26:53;;;;;;;17.05;15.40;;;28.80;46.80;;;;;;4970595;28;114477;-79
2023/06/22 12:29:22;;;;;;;18.08;16.27;;;28.80;46.90;;;;;;4985439;28;114573;-78
2023/06/22 12:31:49;;;;;;;17.20;15.07;;;28.80;46.50;;;;;;4948790;28;117263;-78
2023/06/22 12:34:16;;;;;;;17.48;15.77;;;28.80;46.20;;;;;;4965859;28;115891;-78